Time;durP1;ratioP1;P1;durP2;ratioP2;P2;SDS_P1;SDS_P2;PMS_P1;PMS_P2;Temp;Humidity;BMP_temperature;BMP_pressure;BME280_temperature;BME280_humidity;BME280_pressure;Samples;Min_cycle;Max_cycle;Signal;HPM_P1;HPM_P2
2023/05/24 00:00:14;;;;;;;18.00;3.88;;;6.80;99.90;;;-148.53;100.00;63986.66;5061854;28;20085;-76
2023/05/24 00:02:40;;;;;;;18.90;4.35;;;6.80;99.90;;;-148.53;100.00;63986.66;5051706;28;20094;-75
2023/05/24 00:05:09;;;;;;;20.73;3.95;;;6.80;99.90;;;-148.53;100.00;63986.66;5067463;28;20025;-76
2023/05/24 00:07:38;;;;;;;18.88;3.90;;;6.80;99.90;;;-148.53;100.00;63986.66;5052043;28;20044;-76
2023/05/24 00:10:05;;;;;;;15.32;4.05;;;6.80;99.90;;;-148.53;100.00;63986.66;5051816;28;20099;-76
2023/05/24 00:12:32;;;;;;;16.73;3.70;;;6.90;99.90;;;-148.53;100.00;63986.66;5051898;28;20120;-75
2023/05/24 00:14:58;;;;;;;17.20;3.50;;;6.80;99.90;;;-148.53;100.00;63986.66;5054733;28;20047;-75
2023/05/24 00:17:24;;;;;;;17.05;3.95;;;6.80;99.90;;;-148.53;100.00;63986.66;5054297;28;20033;-76
2023/05/24 00:19:51;;;;;;;21.90;4.68;;;6.60;99.90;;;-148.53;100.00;63986.66;5052133;28;20056;-75
2023/05/24 00:22:19;;;;;;;22.65;3.90;;;6.60;99.90;;;-148.53;100.00;63986.66;5050388;28;20354;-76
2023/05/24 00:24:46;;;;;;;17.92;3.88;;;6.50;99.90;;;-148.53;100.00;63986.66;5056068;28;20044;-75
2023/05/24 00:27:13;;;;;;;16.60;3.63;;;6.50;99.90;;;-148.53;100.00;63986.66;5053420;28;20036;-75
2023/05/24 00:29:39;;;;;;;20.58;4.32;;;6.40;99.90;;;-148.53;100.00;63986.66;5054097;28;20401;-75
2023/05/24 00:32:05;;;;;;;19.58;3.83;;;6.30;99.90;;;-148.53;100.00;63986.66;5061672;28;20031;-75
2023/05/24 00:34:31;;;;;;;19.55;3.90;;;6.20;99.90;;;-148.53;100.00;63986.66;5061417;28;20033;-75
2023/05/24 00:36:57;;;;;;;17.58;3.78;;;6.10;99.90;;;-148.53;100.00;63986.66;5056048;28;20041;-75
2023/05/24 00:39:23;;;;;;;19.33;4.10;;;6.10;99.90;;;-148.53;100.00;63986.66;5054215;28;20534;-75
2023/05/24 00:41:48;;;;;;;19.10;4.65;;;5.90;99.90;;;-148.53;100.00;63986.66;5088185;28;20049;-75
2023/05/24 00:44:14;;;;;;;18.45;4.45;;;5.90;99.90;;;-148.53;100.00;63986.66;5055517;28;20043;-75
2023/05/24 00:46:41;;;;;;;16.50;3.90;;;5.80;99.90;;;-148.53;100.00;63986.66;5053862;28;20045;-76
2023/05/24 00:49:08;;;;;;;19.83;4.38;;;5.90;99.90;;;-148.53;100.00;63986.66;5068628;28;20029;-76
2023/05/24 00:51:35;;;;;;;14.50;3.83;;;6.00;99.90;;;-148.53;100.00;63986.66;5061506;28;20068;-75
2023/05/24 00:54:02;;;;;;;28.02;5.32;;;6.00;99.90;;;-148.53;100.00;63986.66;5060795;28;20476;-75
2023/05/24 00:56:28;;;;;;;21.67;4.32;;;6.00;99.90;;;-148.53;100.00;63986.66;5060670;28;20082;-75
2023/05/24 00:58:55;;;;;;;30.02;5.15;;;6.00;99.90;;;-148.53;100.00;63986.66;5055500;28;20041;-75
2023/05/24 01:01:25;;;;;;;19.08;4.43;;;6.00;99.90;;;-148.53;100.00;63986.66;5055352;28;20025;-75
2023/05/24 01:03:56;;;;;;;21.52;4.72;;;6.10;99.90;;;-148.53;100.00;63986.66;5055589;28;20041;-75
2023/05/24 01:06:22;;;;;;;27.58;4.93;;;6.00;99.90;;;-148.53;100.00;63986.66;5054102;28;20040;-75
2023/05/24 01:09:16;;;;;;;15.73;4.63;;;6.00;99.90;;;-148.53;100.00;63986.66;5065146;28;20052;-75
2023/05/24 01:12:30;;;;;;;19.33;5.13;;;6.00;99.90;;;-148.53;100.00;63986.66;5055172;28;20484;-75
2023/05/24 01:15:17;;;;;;;22.50;4.82;;;6.00;99.90;;;-148.53;100.00;63986.66;5053506;28;20403;-77
2023/05/24 01:17:52;;;;;;;21.48;4.65;;;6.20;99.90;;;-148.53;100.00;63986.66;5058534;28;20506;-77
2023/05/24 01:20:22;;;;;;;30.75;4.95;;;6.20;99.90;;;-148.53;100.00;63986.66;5069343;28;20055;-77
2023/05/24 01:23:13;;;;;;;20.52;4.82;;;6.30;99.90;;;-148.53;100.00;63986.66;5064866;28;20133;-77
2023/05/24 01:26:02;;;;;;;19.77;4.65;;;6.40;99.90;;;-148.53;100.00;63986.66;5054072;28;20051;-77
2023/05/24 01:28:28;;;;;;;27.23;4.73;;;6.40;99.90;;;-148.53;100.00;63986.66;5043129;28;20045;-77
2023/05/24 01:30:55;;;;;;;22.10;4.88;;;6.40;99.90;;;-148.53;100.00;63986.66;5058142;28;20298;-76
2023/05/24 01:33:22;;;;;;;25.58;4.70;;;6.40;99.90;;;-148.53;100.00;63986.66;5054829;28;20036;-77
2023/05/24 01:35:48;;;;;;;26.83;5.05;;;6.40;99.90;;;-148.53;100.00;63986.66;5054348;28;20043;-77
2023/05/24 01:38:15;;;;;;;18.77;4.10;;;6.40;99.90;;;-148.53;100.00;63986.66;5054163;28;20033;-77
2023/05/24 01:40:41;;;;;;;19.48;4.82;;;6.30;99.90;;;-148.53;100.00;63986.66;5054468;28;20366;-76
2023/05/24 01:43:32;;;;;;;21.73;4.82;;;6.30;99.90;;;-148.53;100.00;63986.66;5054740;28;20107;-77
2023/05/24 01:46:12;;;;;;;19.33;5.13;;;6.30;99.90;;;-148.53;100.00;63986.66;5054270;28;20087;-76
2023/05/24 01:48:54;;;;;;;20.73;4.85;;;6.30;99.90;;;-148.53;100.00;63986.66;5058613;28;20091;-77
2023/05/24 01:51:25;;;;;;;24.23;5.03;;;6.20;99.90;;;-148.53;100.00;63986.66;5069883;28;20530;-76
2023/05/24 01:53:53;;;;;;;20.13;5.30;;;6.20;99.90;;;-148.53;100.00;63986.66;5054578;28;20029;-77
2023/05/24 01:56:21;;;;;;;18.65;4.68;;;6.10;99.90;;;-148.53;100.00;63986.66;5054585;28;20063;-76
2023/05/24 01:58:51;;;;;;;22.35;6.43;;;6.10;99.90;;;-148.53;100.00;63986.66;5064691;28;20082;-76
2023/05/24 02:01:18;;;;;;;20.67;5.22;;;6.20;99.90;;;-148.53;100.00;63986.66;5056444;28;20120;-77
2023/05/24 02:03:46;;;;;;;23.83;5.68;;;6.10;99.90;;;-148.53;100.00;63986.66;5054373;28;20041;-76
2023/05/24 02:06:12;;;;;;;19.55;5.90;;;6.20;99.90;;;-148.53;100.00;63986.66;5060852;28;20044;-77
2023/05/24 02:08:39;;;;;;;23.63;5.32;;;6.20;99.90;;;-148.53;100.00;63986.66;5053984;28;20515;-77
2023/05/24 02:11:05;;;;;;;23.85;4.88;;;6.20;99.90;;;-148.53;100.00;63986.66;5054303;28;20033;-77
2023/05/24 02:13:31;;;;;;;18.95;4.95;;;6.30;99.90;;;-148.53;100.00;63986.66;5068912;28;20378;-77
2023/05/24 02:15:56;;;;;;;21.27;5.43;;;6.40;99.90;;;-148.53;100.00;63986.66;5054024;28;20055;-74
2023/05/24 02:18:24;;;;;;;31.05;5.82;;;6.40;99.90;;;-148.53;100.00;63986.66;5052375;28;20036;-75
2023/05/24 02:20:51;;;;;;;32.08;5.90;;;;;;;-148.53;100.00;63986.66;5059060;28;20047;-75
2023/05/24 02:23:16;;;;;;;24.10;5.65;;;6.40;99.90;;;-148.53;100.00;63986.66;5057152;28;20033;-75
2023/05/24 02:25:42;;;;;;;28.13;5.30;;;6.50;99.90;;;-148.53;100.00;63986.66;5067317;28;20032;-75
2023/05/24 02:28:08;;;;;;;25.90;6.25;;;6.50;99.90;;;-148.53;100.00;63986.66;5053905;28;22379;-74
2023/05/24 02:30:34;;;;;;;22.70;5.30;;;6.60;99.90;;;-148.53;100.00;63986.66;5069172;28;20045;-75
2023/05/24 02:33:00;;;;;;;27.13;6.03;;;6.50;99.90;;;-148.53;100.00;63986.66;5053775;28;20025;-75
2023/05/24 02:35:26;;;;;;;27.35;5.68;;;6.50;99.90;;;-148.53;100.00;63986.66;5049953;28;20025;-75
2023/05/24 02:37:52;;;;;;;31.77;5.75;;;6.50;99.90;;;-148.53;100.00;63986.66;5056042;28;20102;-75
2023/05/24 02:40:18;;;;;;;28.23;5.80;;;6.50;99.90;;;-148.53;100.00;63986.66;5051831;28;20040;-75
2023/05/24 02:42:43;;;;;;;23.95;6.20;;;6.40;99.90;;;-148.53;100.00;63986.66;5052020;28;20091;-74
2023/05/24 02:45:09;;;;;;;19.25;5.05;;;6.40;99.90;;;-148.53;100.00;63986.66;5068127;28;20037;-75
2023/05/24 02:47:35;;;;;;;26.88;6.07;;;6.40;99.90;;;-148.53;100.00;63986.66;5043450;28;20025;-75
2023/05/24 02:50:01;;;;;;;27.17;6.15;;;6.40;99.90;;;-148.53;100.00;63986.66;5064662;28;20373;-74
2023/05/24 02:52:26;;;;;;;25.45;5.97;;;6.40;99.90;;;-148.53;100.00;63986.66;5055788;28;20033;-75
2023/05/24 02:54:52;;;;;;;24.95;6.53;;;6.40;99.90;;;-148.53;100.00;63986.66;5052084;28;20039;-75
2023/05/24 02:57:20;;;;;;;27.17;6.32;;;6.40;99.90;;;-148.53;100.00;63986.66;5051840;28;20512;-75
2023/05/24 02:59:46;;;;;;;26.35;5.93;;;6.50;99.90;;;-148.53;100.00;63986.66;5051846;28;20051;-75
2023/05/24 03:02:14;;;;;;;29.17;5.97;;;6.50;99.90;;;-148.53;100.00;63986.66;5049259;28;20025;-75
2023/05/24 03:04:40;;;;;;;23.30;6.03;;;6.50;99.90;;;-148.53;100.00;63986.66;5070724;28;20041;-75
2023/05/24 03:07:09;;;;;;;24.90;5.60;;;6.60;99.90;;;-148.53;100.00;63986.66;5053608;28;20035;-75
2023/05/24 03:09:35;;;;;;;26.10;7.25;;;6.70;99.90;;;-148.53;100.00;63986.66;5068762;28;20098;-75
2023/05/24 03:12:01;;;;;;;30.65;6.35;;;6.70;99.90;;;-148.53;100.00;63986.66;5066086;28;20044;-75
2023/05/24 03:14:26;;;;;;;26.80;5.93;;;6.70;99.90;;;-148.53;100.00;63986.66;5053316;28;20036;-74
2023/05/24 03:16:52;;;;;;;28.90;5.55;;;6.80;99.90;;;-148.53;100.00;63986.66;5052659;28;20040;-75
2023/05/24 03:19:18;;;;;;;22.50;5.95;;;6.70;99.90;;;-148.53;100.00;63986.66;5057278;28;20086;-75
2023/05/24 03:21:43;;;;;;;27.27;6.28;;;6.70;99.90;;;-148.53;100.00;63986.66;5050875;28;20523;-75
2023/05/24 03:24:11;;;;;;;25.98;6.45;;;6.70;99.90;;;-148.53;100.00;63986.66;5050930;28;20044;-74
2023/05/24 03:26:41;;;;;;;;;;;6.80;99.90;;;-148.53;100.00;63986.66;5051513;28;20040;-75
2023/05/24 03:29:07;;;;;;;25.42;6.22;;;6.80;99.90;;;-148.53;100.00;63986.66;5058181;28;19942;-75
2023/05/24 03:31:38;;;;;;;24.63;6.05;;;6.90;99.90;;;-148.53;100.00;63986.66;5050801;28;20073;-76
2023/05/24 03:34:04;;;;;;;23.92;6.25;;;6.90;99.90;;;-148.53;100.00;63986.66;5051181;28;20032;-75
2023/05/24 03:36:32;;;;;;;26.60;7.10;;;6.90;99.90;;;-148.53;100.00;63986.66;5067058;28;20456;-76
2023/05/24 03:38:58;;;;;;;25.73;6.57;;;7.00;99.90;;;-148.53;100.00;63986.66;5036167;28;20098;-76
2023/05/24 03:41:25;;;;;;;23.65;6.38;;;6.90;99.90;;;-148.53;100.00;63986.66;5068943;28;20073;-75
2023/05/24 03:43:51;;;;;;;29.73;6.38;;;7.00;99.90;;;-148.53;100.00;63986.66;5054438;28;20496;-76
2023/05/24 03:46:19;;;;;;;32.17;6.30;;;;;;;-148.53;100.00;63986.66;5046465;28;20032;-76
2023/05/24 03:48:45;;;;;;;26.90;5.83;;;7.10;99.90;;;-148.53;100.00;63986.66;5039744;28;20293;-76
2023/05/24 03:51:11;;;;;;;27.55;6.00;;;7.20;99.90;;;-148.53;100.00;63986.66;5054877;28;20033;-76
2023/05/24 03:53:36;;;;;;;24.45;6.53;;;7.30;99.90;;;-148.53;100.00;63986.66;5051619;28;20049;-76
2023/05/24 03:56:02;;;;;;;25.83;6.47;;;7.30;99.90;;;-148.53;100.00;63986.66;5051930;28;20021;-76
2023/05/24 03:58:28;;;;;;;30.25;6.53;;;7.30;99.90;;;-148.53;100.00;63986.66;5050949;28;20029;-76
2023/05/24 04:00:54;;;;;;;29.02;6.13;;;7.50;99.90;;;-148.53;100.00;63986.66;5051577;28;20033;-75
2023/05/24 04:03:20;;;;;;;25.40;6.30;;;7.50;99.90;;;-148.53;100.00;63986.66;5036919;28;20123;-76
2023/05/24 04:05:47;;;;;;;30.30;5.93;;;7.60;99.90;;;-148.53;100.00;63986.66;5053618;28;20141;-76
2023/05/24 04:08:13;;;;;;;24.58;6.68;;;7.60;99.90;;;-148.53;100.00;63986.66;5063010;28;20041;-77
2023/05/24 04:10:40;;;;;;;36.88;6.63;;;7.70;99.90;;;-148.53;100.00;63986.66;5064985;28;20390;-76
2023/05/24 04:13:09;;;;;;;24.33;5.97;;;7.70;99.90;;;-148.53;100.00;63986.66;5064865;28;20331;-77
2023/05/24 04:15:36;;;;;;;21.60;5.85;;;7.90;99.90;;;-148.53;100.00;63986.66;5074315;28;20541;-77
2023/05/24 04:18:04;;;;;;;19.55;5.10;;;7.90;99.90;;;-148.53;100.00;63986.66;5083569;28;20113;-77
2023/05/24 04:20:29;;;;;;;23.73;6.22;;;7.90;99.90;;;-148.53;100.00;63986.66;5068726;28;20116;-77
2023/05/24 04:22:55;;;;;;;28.83;6.75;;;8.00;99.90;;;-148.53;100.00;63986.66;5057001;28;20037;-76
2023/05/24 04:25:21;;;;;;;25.92;5.93;;;8.10;99.90;;;-148.53;100.00;63986.66;5064712;28;20082;-76
2023/05/24 04:27:47;;;;;;;28.75;6.40;;;8.10;99.90;;;-148.53;100.00;63986.66;5052487;28;20464;-77
2023/05/24 04:30:15;;;;;;;23.75;6.20;;;8.10;99.90;;;-148.53;100.00;63986.66;5049970;28;20048;-77
2023/05/24 04:32:45;;;;;;;21.02;5.78;;;8.10;99.90;;;-148.53;100.00;63986.66;5049910;28;20544;-77
2023/05/24 04:35:15;;;;;;;29.10;6.28;;;8.10;99.90;;;-148.53;100.00;63986.66;5051338;28;20033;-76
2023/05/24 04:37:41;;;;;;;30.63;7.03;;;8.10;99.90;;;-148.53;100.00;63986.66;5053642;28;20028;-77
2023/05/24 04:40:08;;;;;;;30.65;6.22;;;8.20;99.90;;;-148.53;100.00;63986.66;5051824;28;20134;-77
2023/05/24 04:42:34;;;;;;;25.55;5.75;;;8.30;99.90;;;-148.53;100.00;63986.66;5057162;28;20040;-76
2023/05/24 04:45:00;;;;;;;30.92;5.97;;;8.30;99.90;;;-148.53;100.00;63986.66;5051520;28;20484;-77
2023/05/24 04:47:25;;;;;;;24.60;5.63;;;8.50;99.90;;;-148.53;100.00;63986.66;5057302;28;20130;-77
2023/05/24 04:49:52;;;;;;;20.70;5.43;;;8.60;99.90;;;-148.53;100.00;63986.66;5051225;28;20399;-76
2023/05/24 04:52:18;;;;;;;25.90;5.00;;;8.70;99.90;;;-148.53;100.00;63986.66;5059099;28;20048;-76
2023/05/24 04:54:44;;;;;;;27.05;5.88;;;8.80;99.90;;;-148.53;100.00;63986.66;5052187;28;20029;-76
2023/05/24 04:57:09;;;;;;;21.63;5.75;;;8.80;99.90;;;-148.53;100.00;63986.66;5051101;28;20037;-77
2023/05/24 04:59:35;;;;;;;30.73;5.78;;;8.90;99.90;;;-148.53;100.00;63986.66;5052149;28;20040;-76
2023/05/24 05:02:01;;;;;;;20.55;5.55;;;8.80;99.90;;;-148.53;100.00;63986.66;5051277;28;20361;-76
2023/05/24 05:04:27;;;;;;;29.55;6.22;;;8.80;99.90;;;-148.53;100.00;63986.66;5050008;28;20044;-76
2023/05/24 05:06:54;;;;;;;22.83;5.82;;;8.80;99.90;;;-148.53;100.00;63986.66;5055269;28;20047;-77
2023/05/24 05:09:20;;;;;;;21.75;5.80;;;8.80;99.90;;;-148.53;100.00;63986.66;5062750;28;20505;-77
2023/05/24 05:11:47;;;;;;;24.23;5.97;;;8.90;99.90;;;-148.53;100.00;63986.66;5061609;28;20044;-77
2023/05/24 05:14:13;;;;;;;22.50;6.07;;;8.90;99.90;;;-148.53;100.00;63986.66;5056334;28;20040;-77
2023/05/24 05:16:40;;;;;;;25.50;5.68;;;8.90;99.90;;;-148.53;100.00;63986.66;5052908;28;20043;-81
2023/05/24 05:19:05;;;;;;;26.98;6.32;;;9.00;99.90;;;-148.53;100.00;63986.66;5065400;28;20117;-79
2023/05/24 05:21:32;;;;;;;30.45;6.38;;;9.10;99.90;;;-148.53;100.00;63986.66;5060009;28;20047;-77
2023/05/24 05:24:02;;;;;;;24.48;6.10;;;9.30;99.90;;;-148.53;100.00;63986.66;5054711;28;20439;-77
2023/05/24 05:26:29;;;;;;;23.63;5.15;;;9.40;99.90;;;-148.53;100.00;63986.66;5060047;28;20037;-77
2023/05/24 05:28:56;;;;;;;23.25;6.60;;;9.40;99.90;;;-148.53;100.00;63986.66;5056849;28;20045;-77
2023/05/24 05:31:23;;;;;;;31.65;6.25;;;9.50;99.90;;;-148.53;100.00;63986.66;5059633;28;20037;-77
2023/05/24 05:33:49;;;;;;;28.70;5.72;;;9.40;99.90;;;-148.53;100.00;63986.66;5054968;28;20086;-77
2023/05/24 05:36:16;;;;;;;22.73;6.47;;;9.50;99.90;;;-148.53;100.00;63986.66;5054503;28;20416;-81
2023/05/24 05:38:42;;;;;;;29.73;6.60;;;9.40;99.90;;;-148.53;100.00;63986.66;5054649;28;20037;-77
2023/05/24 05:41:07;;;;;;;26.10;4.88;;;9.60;99.90;;;-148.53;100.00;63986.66;5054499;28;20386;-76
2023/05/24 05:43:33;;;;;;;25.67;5.40;;;9.80;99.90;;;-148.53;100.00;63986.66;5053609;28;20107;-76
2023/05/24 05:46:01;;;;;;;23.13;4.85;;;9.90;99.90;;;-148.53;100.00;63986.66;5068337;28;20047;-77
2023/05/24 05:48:27;;;;;;;27.50;6.15;;;10.00;99.90;;;-148.53;100.00;63986.66;5057868;28;20033;-77
2023/05/24 05:50:53;;;;;;;27.17;5.97;;;10.10;99.90;;;-148.53;100.00;63986.66;5070173;28;20458;-76
2023/05/24 05:53:19;;;;;;;30.38;5.43;;;10.40;99.90;;;-148.53;100.00;63986.66;5054640;28;20065;-76
2023/05/24 05:55:44;;;;;;;22.67;5.18;;;10.70;99.90;;;-148.53;100.00;63986.66;5062175;28;20146;-76
2023/05/24 05:58:11;;;;;;;19.80;5.30;;;10.90;99.90;;;-148.53;100.00;63986.66;5058740;28;20082;-76
2023/05/24 06:00:38;;;;;;;22.60;5.55;;;10.90;99.90;;;-148.53;100.00;63986.66;5052133;28;20121;-76
2023/05/24 06:03:04;;;;;;;14.15;4.75;;;10.80;99.90;;;-148.53;100.00;63986.66;5053917;28;20037;-76
2023/05/24 06:05:30;;;;;;;21.48;5.00;;;10.80;99.90;;;-148.53;100.00;63986.66;5053818;28;20389;-76
2023/05/24 06:07:55;;;;;;;32.42;5.85;;;10.60;99.90;;;-148.53;100.00;63986.66;5065328;28;20033;-76
2023/05/24 06:10:21;;;;;;;25.50;5.93;;;10.60;99.90;;;-148.53;100.00;63986.66;5056241;28;20025;-76
2023/05/24 06:12:47;;;;;;;22.60;5.45;;;10.60;99.90;;;-148.53;100.00;63986.66;5057340;28;20472;-76
2023/05/24 06:15:13;;;;;;;21.58;5.20;;;10.50;99.90;;;-148.53;100.00;63986.66;5054345;28;20048;-75
2023/05/24 06:17:39;;;;;;;23.63;5.35;;;10.60;99.90;;;-148.53;100.00;63986.66;5060146;28;20087;-76
2023/05/24 06:20:10;;;;;;;25.58;5.78;;;10.60;99.90;;;-148.53;100.00;63986.66;5057811;28;20425;-74
2023/05/24 06:22:37;;;;;;;21.85;5.80;;;10.50;99.90;;;-148.53;100.00;63986.66;5053847;28;20090;-75
2023/05/24 06:25:04;;;;;;;23.05;4.57;;;10.70;99.90;;;-148.53;100.00;63986.66;5060095;28;20029;-75
2023/05/24 06:27:30;;;;;;;24.90;5.60;;;10.80;99.90;;;-148.53;100.00;63986.66;5058914;28;20041;-75
2023/05/24 06:29:55;;;;;;;22.60;5.45;;;10.80;99.90;;;-148.53;100.00;63986.66;5053989;28;20171;-75
2023/05/24 06:32:21;;;;;;;23.67;6.13;;;10.80;99.90;;;-148.53;100.00;63986.66;5071289;28;20049;-75
2023/05/24 06:34:47;;;;;;;25.35;5.85;;;10.90;99.90;;;-148.53;100.00;63986.66;5068499;28;20025;-75
2023/05/24 06:37:16;;;;;;;21.20;4.82;;;11.00;99.90;;;-148.53;100.00;63986.66;5073896;28;20032;-74
2023/05/24 06:39:42;;;;;;;20.90;5.65;;;11.20;99.90;;;-148.53;100.00;63986.66;5069420;28;20045;-75
2023/05/24 06:42:07;;;;;;;19.30;5.38;;;11.10;99.90;;;-148.53;100.00;63986.66;5070864;28;20109;-75
2023/05/24 06:44:36;;;;;;;23.63;5.55;;;11.20;99.90;;;-148.53;100.00;63986.66;5067395;28;20047;-75
2023/05/24 06:47:03;;;;;;;25.73;6.05;;;11.30;99.90;;;-148.53;100.00;63986.66;5073459;28;20051;-77
2023/05/24 06:49:28;;;;;;;24.23;5.22;;;11.50;99.90;;;-148.53;100.00;63986.66;5072054;28;20029;-78
2023/05/24 06:51:54;;;;;;;22.98;5.18;;;11.80;99.90;;;-148.53;100.00;63986.66;5071616;28;20487;-79
2023/05/24 06:54:20;;;;;;;30.98;6.40;;;11.70;99.90;;;-148.53;100.00;63986.66;5066009;28;20491;-77
2023/05/24 06:56:46;;;;;;;26.80;6.88;;;11.50;99.90;;;-148.53;100.00;63986.66;5066815;28;20044;-76
2023/05/24 06:59:12;;;;;;;22.20;5.60;;;11.60;99.90;;;-148.53;100.00;63986.66;5064740;28;20040;-77
2023/05/24 07:01:41;;;;;;;22.50;5.63;;;11.60;99.90;;;-148.53;100.00;63986.66;5065932;28;20139;-78
2023/05/24 07:04:10;;;;;;;26.73;5.35;;;11.70;99.90;;;-148.53;100.00;63986.66;5071474;28;20062;-79
2023/05/24 07:06:38;;;;;;;23.90;5.78;;;11.90;99.90;;;-148.53;100.00;63986.66;5067140;28;20123;-78
2023/05/24 07:09:03;;;;;;;;;;;11.80;99.90;;;-148.53;100.00;63986.66;5067028;28;20033;-78
2023/05/24 07:11:30;;;;;;;21.40;5.20;;;11.70;99.90;;;-148.53;100.00;63986.66;5062560;28;19925;-77
2023/05/24 07:13:57;;;;;;;21.48;5.57;;;11.90;99.90;;;-148.53;100.00;63986.66;5069466;28;20088;-76
2023/05/24 07:16:23;;;;;;;20.45;5.43;;;12.20;99.90;;;-148.53;100.00;63986.66;5070750;28;20047;-77
2023/05/24 07:18:51;;;;;;;22.17;5.13;;;12.30;99.90;;;-148.53;100.00;63986.66;5068300;28;20037;-76
2023/05/24 07:21:17;;;;;;;18.55;4.72;;;12.40;99.90;;;-148.53;100.00;63986.66;5069140;28;20044;-76
2023/05/24 07:23:44;;;;;;;23.88;5.32;;;12.50;99.90;;;-148.53;100.00;63986.66;5068541;28;20044;-77
2023/05/24 07:26:10;;;;;;;19.17;4.83;;;12.30;99.90;;;-148.53;100.00;63986.66;5069851;28;20044;-77
2023/05/24 07:28:37;;;;;;;23.67;5.03;;;12.10;99.90;;;-148.53;100.00;63986.66;5056109;28;20049;-77
2023/05/24 07:31:03;;;;;;;20.27;5.32;;;12.10;99.90;;;-148.53;100.00;63986.66;5062861;28;20049;-77
2023/05/24 07:33:29;;;;;;;21.88;5.60;;;12.10;99.90;;;-148.53;100.00;63986.66;5056031;28;20032;-77
2023/05/24 07:35:56;;;;;;;26.40;5.85;;;11.60;99.90;;;-148.53;100.00;63986.66;5057352;28;20033;-77
2023/05/24 07:38:22;;;;;;;23.83;5.15;;;11.40;99.90;;;-148.53;100.00;63986.66;5056298;28;20036;-77
2023/05/24 07:40:48;;;;;;;20.00;4.90;;;11.40;99.90;;;-148.53;100.00;63986.66;5046929;28;20036;-77
2023/05/24 07:43:14;;;;;;;17.80;4.30;;;11.40;99.90;;;-148.53;100.00;63986.66;5071010;28;20105;-76
2023/05/24 07:45:40;;;;;;;22.13;4.68;;;11.40;99.90;;;-148.53;100.00;63986.66;5064975;28;20042;-76
2023/05/24 07:48:05;;;;;;;22.65;4.07;;;11.40;99.90;;;-148.53;100.00;63986.66;5067135;28;20033;-76
2023/05/24 07:50:32;;;;;;;19.40;4.13;;;11.30;99.90;;;-148.53;100.00;63986.66;5068095;28;20048;-78
2023/05/24 07:52:57;;;;;;;22.55;4.40;;;11.40;99.90;;;-148.53;100.00;63986.66;5064032;28;20038;-77
2023/05/24 07:55:23;;;;;;;22.77;5.00;;;11.50;99.90;;;-148.53;100.00;63986.66;5064240;28;20032;-77
2023/05/24 07:57:49;;;;;;;20.67;5.70;;;11.60;99.90;;;-148.53;100.00;63986.66;5060867;28;20040;-77
2023/05/24 08:00:16;;;;;;;17.65;4.55;;;11.60;99.90;;;-148.53;100.00;63986.66;5063887;28;20040;-77
2023/05/24 08:02:45;;;;;;;25.90;5.20;;;11.60;99.90;;;-148.53;100.00;63986.66;5065391;28;20036;-77
2023/05/24 08:05:15;;;;;;;25.95;5.25;;;11.80;99.90;;;-148.53;100.00;63986.66;5062566;28;20036;-79
2023/05/24 08:07:41;;;;;;;24.20;4.95;;;12.10;99.90;;;-148.53;100.00;63986.66;5062741;28;20071;-78
2023/05/24 08:10:11;;;;;;;24.27;4.13;;;11.90;99.90;;;-148.53;100.00;63986.66;5078910;28;20040;-76
2023/05/24 08:12:37;;;;;;;21.33;4.80;;;11.70;99.90;;;-148.53;100.00;63986.66;5063656;28;20040;-76
2023/05/24 08:15:04;;;;;;;21.60;4.68;;;11.60;99.90;;;-148.53;100.00;63986.66;5062533;28;20071;-74
2023/05/24 08:17:30;;;;;;;19.40;4.80;;;11.40;99.90;;;-148.53;100.00;63986.66;5066098;28;20117;-76
2023/05/24 08:19:56;;;;;;;19.40;5.78;;;11.10;99.90;;;-148.53;100.00;63986.66;5061623;28;20155;-80
2023/05/24 08:22:22;;;;;;;22.23;5.97;;;11.10;99.90;;;-148.53;100.00;63986.66;5059484;28;20033;-78
2023/05/24 08:24:48;;;;;;;25.20;6.22;;;10.70;99.90;;;-148.53;100.00;63986.66;5050194;28;20041;-75
2023/05/24 08:27:14;;;;;;;25.05;6.50;;;10.30;99.90;;;-148.53;100.00;63986.66;5051053;28;20032;-78
2023/05/24 08:29:40;;;;;;;24.23;5.38;;;10.40;99.90;;;-148.53;100.00;63986.66;5057051;28;20044;-77
2023/05/24 08:32:08;;;;;;;22.80;6.25;;;10.50;99.90;;;-148.53;100.00;63986.66;5059909;28;20400;-76
2023/05/24 08:34:36;;;;;;;26.15;5.80;;;10.60;99.90;;;-148.53;100.00;63986.66;5058386;28;20065;-76
2023/05/24 08:37:02;;;;;;;;;;;10.40;99.90;;;-148.53;100.00;63986.66;5060631;28;20119;-76
2023/05/24 08:39:28;;;;;;;20.35;6.10;;;10.30;99.90;;;-148.53;100.00;63986.66;5060698;28;19917;-75
2023/05/24 08:41:55;;;;;;;19.70;6.13;;;10.50;99.90;;;-148.53;100.00;63986.66;5051255;28;20044;-76
2023/05/24 08:44:22;;;;;;;29.45;7.13;;;10.60;99.90;;;-148.53;100.00;63986.66;5057053;28;20511;-75
2023/05/24 08:46:49;;;;;;;24.43;6.37;;;10.80;99.90;;;-148.53;100.00;63986.66;5055082;28;20096;-75
2023/05/24 08:49:16;;;;;;;23.13;5.50;;;11.00;99.90;;;-148.53;100.00;63986.66;5051319;28;20036;-76
2023/05/24 08:51:44;;;;;;;24.33;5.87;;;10.80;99.90;;;-148.53;100.00;63986.66;5060789;28;20083;-77
2023/05/24 08:54:13;;;;;;;;;;;10.90;99.90;;;-148.53;100.00;63986.66;5070472;28;20119;-80
2023/05/24 08:56:40;;;;;;;18.65;5.75;;;10.70;99.90;;;-148.53;100.00;63986.66;5067641;28;19916;-79
2023/05/24 08:59:07;;;;;;;19.63;6.07;;;10.90;99.90;;;-148.53;100.00;63986.66;5067615;28;20072;-77
2023/05/24 09:01:38;;;;;;;18.27;6.40;;;10.70;99.90;;;-148.53;100.00;63986.66;5053944;28;20373;-77
2023/05/24 09:04:05;;;;;;;14.75;6.50;;;10.70;99.90;;;-148.53;100.00;63986.66;5061661;28;20044;-78
2023/05/24 09:06:31;;;;;;;23.50;7.65;;;10.60;99.90;;;-148.53;100.00;63986.66;5072007;28;20040;-77
2023/05/24 09:09:02;;;;;;;22.10;6.63;;;10.40;99.90;;;-148.53;100.00;63986.66;5066470;28;20029;-76
2023/05/24 09:11:31;;;;;;;24.83;6.80;;;10.50;99.90;;;-148.53;100.00;63986.66;5066888;28;20024;-77
2023/05/24 09:13:57;;;;;;;22.83;7.10;;;10.60;99.90;;;-148.53;100.00;63986.66;5065264;28;20043;-77
2023/05/24 09:16:23;;;;;;;22.63;6.88;;;10.80;99.90;;;-148.53;100.00;63986.66;5069414;28;20388;-76
2023/05/24 09:18:48;;;;;;;16.70;6.55;;;10.80;99.90;;;-148.53;100.00;63986.66;5065206;28;20048;-75
2023/05/24 09:21:14;;;;;;;22.33;6.60;;;10.90;99.90;;;-148.53;100.00;63986.66;5050089;28;20399;-77
2023/05/24 09:23:41;;;;;;;19.95;6.97;;;11.20;99.90;;;-148.53;100.00;63986.66;5069635;28;20040;-78
2023/05/24 09:26:08;;;;;;;19.77;6.10;;;11.60;99.90;;;-148.53;100.00;63986.66;5062896;28;20036;-77
2023/05/24 09:28:36;;;;;;;21.25;5.78;;;11.90;99.90;;;-148.53;100.00;63986.66;5051304;28;20033;-76
2023/05/24 09:31:03;;;;;;;18.93;5.87;;;12.20;99.90;;;-148.53;100.00;63986.66;5069653;28;20540;-77
2023/05/24 09:33:33;;;;;;;24.65;6.90;;;11.60;99.90;;;-148.53;100.00;63986.66;5068546;28;20033;-77
2023/05/24 09:36:02;;;;;;;25.33;7.53;;;11.70;99.90;;;-148.53;100.00;63986.66;5070341;28;20055;-83
2023/05/24 09:38:28;;;;;;;21.85;6.70;;;12.10;99.90;;;-148.53;100.00;63986.66;5060308;28;20484;-77
2023/05/24 09:41:04;;;;;;;16.05;5.43;;;12.20;99.90;;;-148.53;100.00;63986.66;5053245;28;20040;-77
2023/05/24 09:43:46;;;;;;;21.00;6.75;;;12.00;99.90;;;-148.53;100.00;63986.66;5068369;28;20696;-77
2023/05/24 09:46:17;;;;;;;18.58;6.10;;;12.00;99.90;;;-148.53;100.00;63986.66;5058786;28;20043;-76
2023/05/24 09:48:58;;;;;;;18.77;5.65;;;12.00;99.90;;;-148.53;100.00;63986.66;5068466;28;20086;-77
2023/05/24 09:51:25;;;;;;;20.23;6.00;;;11.90;99.90;;;-148.53;100.00;63986.66;5063718;28;20052;-77
2023/05/24 09:53:56;;;;;;;18.98;5.65;;;12.20;99.90;;;-148.53;100.00;63986.66;5070434;28;20035;-78
2023/05/24 09:56:25;;;;;;;19.90;6.05;;;12.30;99.90;;;-148.53;100.00;63986.66;5069900;28;20086;-78
2023/05/24 09:58:50;;;;;;;23.35;6.68;;;12.30;99.90;;;-148.53;100.00;63986.66;5069140;28;20485;-77